createdAt,value
2019-05-30T00:00:42.593Z,17.35
2019-05-30T00:03:13.837Z,17.24
2019-05-30T00:05:43.489Z,17.26
2019-05-30T00:08:13.253Z,17.41
2019-05-30T00:10:42.898Z,17.27
2019-05-30T00:13:12.538Z,17.32
2019-05-30T00:15:42.149Z,17.43
2019-05-30T00:18:11.783Z,17.26
2019-05-30T00:20:41.598Z,17.27
2019-05-30T00:23:11.318Z,17.25
2019-05-30T00:25:42.203Z,17.37
2019-05-30T00:28:11.845Z,17.49
2019-05-30T00:30:47.943Z,17.42
2019-05-30T00:33:17.635Z,17.25
2019-05-30T00:35:47.283Z,17.37
2019-05-30T00:38:16.913Z,17.24
2019-05-30T00:40:46.584Z,17.20
2019-05-30T00:43:16.074Z,17.23
2019-05-30T00:45:45.656Z,17.04
2019-05-30T00:48:15.196Z,17.08
2019-05-30T00:50:44.684Z,17.05
2019-05-30T00:53:14.321Z,16.89
2019-05-30T00:55:48.498Z,16.81
2019-05-30T00:58:18.114Z,16.75
2019-05-30T01:00:47.874Z,16.97
2019-05-30T01:03:19.488Z,16.76
2019-05-30T01:05:49.165Z,16.67
2019-05-30T01:08:18.622Z,16.65
2019-05-30T01:10:48.211Z,16.90
2019-05-30T01:13:17.920Z,16.79
2019-05-30T01:15:47.673Z,16.85
2019-05-30T01:18:17.313Z,16.67
2019-05-30T01:20:46.973Z,16.51
2019-05-30T01:23:17.524Z,16.62
2019-05-30T01:25:47.088Z,16.41
2019-05-30T01:28:16.727Z,16.70
2019-05-30T01:31:03.073Z,16.78
2019-05-30T01:33:22.644Z,16.71
2019-05-30T01:35:52.350Z,16.63
2019-05-30T01:38:22.013Z,16.64
2019-05-30T01:40:51.613Z,16.70
2019-05-30T01:43:21.244Z,16.60
2019-05-30T01:45:50.937Z,16.25
2019-05-30T01:48:20.563Z,16.47
2019-05-30T01:50:50.173Z,16.57
2019-05-30T01:53:19.752Z,16.69
2019-05-30T01:55:51.526Z,16.37
2019-05-30T01:58:21.187Z,16.36
2019-05-30T02:00:51.436Z,16.51
2019-05-30T02:03:24.120Z,16.48
2019-05-30T02:05:55.235Z,16.22
2019-05-30T02:08:25.005Z,16.11
2019-05-30T02:10:54.764Z,16.17
2019-05-30T02:13:24.677Z,16.44
2019-05-30T02:15:54.311Z,16.45
2019-05-30T02:18:23.944Z,16.37
2019-05-30T02:20:53.481Z,16.24
2019-05-30T02:23:23.044Z,16.19
2019-05-30T02:25:52.622Z,16.15
2019-05-30T02:28:22.262Z,16.02
2019-05-30T02:30:51.929Z,15.87
2019-05-30T02:33:21.597Z,16.08
2019-05-30T02:35:51.419Z,16.07
2019-05-30T02:38:21.045Z,16.14
2019-05-30T02:40:50.609Z,15.93
2019-05-30T02:43:20.100Z,15.87
2019-05-30T02:45:49.663Z,15.66
2019-05-30T02:48:22.056Z,15.82
2019-05-30T02:50:51.604Z,15.78
2019-05-30T02:53:21.122Z,15.74
2019-05-30T02:55:50.652Z,15.92
2019-05-30T02:58:20.148Z,15.81
2019-05-30T03:00:49.790Z,15.72
2019-05-30T03:03:19.447Z,15.76
2019-05-30T03:05:50.282Z,15.87
2019-05-30T03:08:20.020Z,15.69
2019-05-30T03:10:49.828Z,15.76
2019-05-30T03:13:19.709Z,15.77
2019-05-30T03:15:49.876Z,15.66
2019-05-30T03:18:19.491Z,15.60
2019-05-30T03:20:49.178Z,15.41
2019-05-30T03:23:18.737Z,15.38
2019-05-30T03:25:48.322Z,15.60
2019-05-30T03:28:17.922Z,15.69
2019-05-30T03:30:47.592Z,15.89
2019-05-30T03:57:07.057Z,16.48
2019-05-30T04:06:10.160Z,16.44
2019-05-30T04:08:40.892Z,16.52
2019-05-30T04:11:14.748Z,16.45
2019-05-30T04:14:13.291Z,16.44
2019-05-30T04:16:47.644Z,16.54
2019-05-30T04:19:12.556Z,16.62
2019-05-30T04:22:09.341Z,16.70
2019-05-30T04:24:29.642Z,16.73
2019-05-30T04:26:51.636Z,16.70
2019-05-30T04:29:35.206Z,16.73
2019-05-30T04:32:03.809Z,16.88
2019-05-30T04:34:35.053Z,17.01
2019-05-30T04:37:05.006Z,17.03
2019-05-30T04:39:34.902Z,17.11
2019-05-30T04:42:06.654Z,17.20
2019-05-30T04:44:37.170Z,17.20
2019-05-30T04:47:10.023Z,17.23
2019-05-30T04:52:47.489Z,17.09
2019-05-30T04:58:01.741Z,17.57
2019-05-30T05:00:31.495Z,17.68
2019-05-30T05:09:35.796Z,17.98
2019-05-30T05:12:05.505Z,18.09
2019-05-30T05:14:35.160Z,18.11
2019-05-30T05:17:04.870Z,18.11
2019-05-30T05:23:21.350Z,18.52
2019-05-30T05:25:28.068Z,18.72
2019-05-30T05:28:52.742Z,18.88
2019-05-30T05:30:43.260Z,19.19
2019-05-30T05:33:12.884Z,19.61
2019-05-30T05:36:18.769Z,20.01
2019-05-30T05:38:50.397Z,19.80
2019-05-30T05:41:22.319Z,20.19
2019-05-30T05:44:07.538Z,20.78
2019-05-30T05:46:28.504Z,21.21
2019-05-30T05:49:03.623Z,20.98
2019-05-30T05:51:33.121Z,21.12
2019-05-30T05:54:02.659Z,21.33
2019-05-30T05:56:32.153Z,21.57
2019-05-30T05:59:01.669Z,21.24
2019-05-30T06:01:31.779Z,21.63
2019-05-30T06:04:12.500Z,21.81
2019-05-30T06:06:32.785Z,22.05
2019-05-30T06:09:02.275Z,21.85
2019-05-30T06:11:31.921Z,22.37
2019-05-30T06:14:01.541Z,22.91
2019-05-30T06:16:31.223Z,23.30
2019-05-30T06:19:00.713Z,23.14
2019-05-30T06:21:31.530Z,22.48
2019-05-30T06:24:00.970Z,22.63
2019-05-30T06:26:30.550Z,22.78
2019-05-30T06:29:00.138Z,23.06
2019-05-30T06:31:29.714Z,23.06
2019-05-30T06:33:59.280Z,22.69
2019-05-30T06:36:29.331Z,23.00
2019-05-30T06:39:00.930Z,23.32
2019-05-30T06:41:32.004Z,23.32
2019-05-30T06:44:08.603Z,23.46
2019-05-30T06:46:38.138Z,23.82
2019-05-30T06:49:08.720Z,23.82
2019-05-30T06:51:38.283Z,24.12
2019-05-30T06:54:07.936Z,24.08
2019-05-30T06:56:37.376Z,23.82
2019-05-30T06:59:06.962Z,24.22
2019-05-30T07:01:36.374Z,24.05
2019-05-30T07:04:06.324Z,23.95
2019-05-30T07:06:36.556Z,24.25
2019-05-30T07:09:08.500Z,23.87
2019-05-30T07:11:38.037Z,24.11
2019-05-30T07:14:07.669Z,23.90
2019-05-30T07:16:37.552Z,23.94
2019-05-30T07:19:08.119Z,23.52
2019-05-30T07:21:38.626Z,23.58
2019-05-30T07:24:08.309Z,23.87
2019-05-30T07:26:39.217Z,23.72
2019-05-30T07:29:08.702Z,23.41
2019-05-30T07:31:38.209Z,23.48
2019-05-30T07:34:07.876Z,23.37
2019-05-30T07:36:37.514Z,23.16
2019-05-30T07:39:08.671Z,23.39
2019-05-30T07:41:38.270Z,23.44
2019-05-30T07:44:09.416Z,23.40
2019-05-30T07:46:39.241Z,22.72
2019-05-30T07:49:08.842Z,22.71
2019-05-30T07:51:39.619Z,22.83
2019-05-30T07:54:09.186Z,22.35
2019-05-30T07:56:38.883Z,22.74
2019-05-30T07:59:08.410Z,23.03
2019-05-30T08:01:39.615Z,23.23
2019-05-30T08:04:09.007Z,23.45
2019-05-30T08:06:38.574Z,23.46
2019-05-30T08:09:08.148Z,23.26
2019-05-30T08:11:37.642Z,23.69
2019-05-30T08:14:07.210Z,24.07
2019-05-30T08:16:37.492Z,24.38
2019-05-30T08:19:10.276Z,24.52
2019-05-30T08:21:39.751Z,24.34
2019-05-30T08:24:09.461Z,24.66
2019-05-30T08:26:39.037Z,24.80
2019-05-30T08:29:08.566Z,24.32
2019-05-30T08:31:38.887Z,24.02
2019-05-30T08:34:08.754Z,23.87
2019-05-30T08:36:39.200Z,24.10
2019-05-30T08:39:08.874Z,24.18
2019-05-30T08:41:39.525Z,24.51
2019-05-30T08:44:09.118Z,24.40
2019-05-30T08:46:40.784Z,24.83
2019-05-30T08:49:10.289Z,24.66
2019-05-30T08:51:40.499Z,24.72
2019-05-30T08:54:13.533Z,24.62
2019-05-30T08:56:42.068Z,24.99
2019-05-30T08:59:11.488Z,25.54
2019-05-30T09:01:42.138Z,25.55
2019-05-30T09:04:12.323Z,24.72
2019-05-30T09:06:42.109Z,24.63
2019-05-30T09:09:11.628Z,24.73
2019-05-30T09:11:42.321Z,24.92
2019-05-30T09:14:11.909Z,25.18
2019-05-30T09:16:41.533Z,25.46
2019-05-30T09:19:11.108Z,25.60
2019-05-30T09:21:41.773Z,25.40
2019-05-30T09:24:19.102Z,24.86
2019-05-30T09:26:50.430Z,25.41
2019-05-30T09:29:20.151Z,25.76
2019-05-30T09:31:49.643Z,25.29
2019-05-30T09:34:19.135Z,24.71
2019-05-30T09:36:49.186Z,24.34
2019-05-30T09:39:19.162Z,24.80
2019-05-30T09:41:49.837Z,25.06
2019-05-30T09:44:19.524Z,25.10
2019-05-30T09:46:50.420Z,25.43
2019-05-30T09:49:20.313Z,25.77
2019-05-30T09:51:51.033Z,25.87
2019-05-30T09:54:20.733Z,26.19
2019-05-30T09:56:50.932Z,25.69
2019-05-30T09:59:21.292Z,25.00
2019-05-30T10:01:52.033Z,24.56
2019-05-30T10:04:21.865Z,24.85
2019-05-30T10:06:52.561Z,25.26
2019-05-30T10:09:22.329Z,25.55
2019-05-30T10:11:51.894Z,25.55
2019-05-30T10:14:21.469Z,25.88
2019-05-30T10:16:54.781Z,25.74
2019-05-30T10:19:22.381Z,25.34
2019-05-30T10:21:53.144Z,25.45
2019-05-30T10:24:24.691Z,25.95
2019-05-30T10:26:54.315Z,25.73
2019-05-30T10:29:23.871Z,26.07
2019-05-30T10:31:53.363Z,26.51
2019-05-30T10:34:22.891Z,26.05
2019-05-30T10:36:53.662Z,26.24
2019-05-30T10:39:24.835Z,26.04
2019-05-30T10:41:54.322Z,25.78
2019-05-30T10:44:23.957Z,25.54
2019-05-30T10:46:54.590Z,25.37
2019-05-30T10:49:34.313Z,25.61
2019-05-30T10:51:59.121Z,25.37
2019-05-30T10:54:27.134Z,25.58
2019-05-30T10:56:56.730Z,25.25
2019-05-30T10:59:26.325Z,25.65
2019-05-30T11:01:56.680Z,25.76
2019-05-30T11:04:26.263Z,25.63
2019-05-30T11:07:11.483Z,25.69
2019-05-30T11:09:38.698Z,25.91
2019-05-30T11:12:08.125Z,26.07
2019-05-30T11:14:37.629Z,25.78
2019-05-30T11:17:07.413Z,25.65
2019-05-30T11:19:36.904Z,25.49
2019-05-30T11:22:06.425Z,25.10
2019-05-30T11:24:36.944Z,24.48
2019-05-30T11:27:21.942Z,23.92
2019-05-30T11:29:58.920Z,24.12
2019-05-30T11:32:30.441Z,24.08
2019-05-30T11:35:00.012Z,24.38
2019-05-30T11:37:29.699Z,24.17
2019-05-30T11:40:00.194Z,24.16
2019-05-30T11:42:29.891Z,24.35
2019-05-30T11:45:12.130Z,24.59
2019-05-30T11:47:32.558Z,24.67
2019-05-30T11:50:13.081Z,24.68
2019-05-30T11:53:12.108Z,24.36
2019-05-30T11:55:52.139Z,24.28
2019-05-30T11:58:25.091Z,24.05
2019-05-30T12:01:04.363Z,24.51
2019-05-30T12:03:35.627Z,24.98
2019-05-30T12:06:34.600Z,25.42
2019-05-30T12:09:26.206Z,25.50
2019-05-30T12:11:47.793Z,25.05
2019-05-30T12:14:21.507Z,24.80
2019-05-30T12:16:53.188Z,25.07
2019-05-30T12:19:23.405Z,25.48
2019-05-30T12:21:53.596Z,25.96
2019-05-30T12:24:23.196Z,25.89
2019-05-30T12:27:03.807Z,25.28
2019-05-30T12:29:39.377Z,25.34
2019-05-30T12:32:17.897Z,24.89
2019-05-30T12:34:54.396Z,24.49
2019-05-30T12:37:25.531Z,24.00
2019-05-30T12:40:03.230Z,24.09
2019-05-30T12:42:38.591Z,24.24
2019-05-30T12:45:14.647Z,24.05
2019-05-30T12:47:45.845Z,24.43
2019-05-30T12:50:16.875Z,24.82
2019-05-30T12:52:53.376Z,24.64
2019-05-30T12:55:26.644Z,24.52
2019-05-30T12:58:03.508Z,24.26
2019-05-30T13:00:36.177Z,24.26
2019-05-30T13:03:28.243Z,23.93
2019-05-30T13:06:36.116Z,23.66
2019-05-30T13:09:15.730Z,23.66
2019-05-30T13:11:45.513Z,23.52
2019-05-30T13:14:30.845Z,23.65
2019-05-30T13:17:06.004Z,23.63
2019-05-30T13:19:47.045Z,23.87
2019-05-30T13:22:21.553Z,24.24
2019-05-30T13:24:55.488Z,24.18
2019-05-30T13:27:25.923Z,24.21
2019-05-30T13:29:57.999Z,24.49
2019-05-30T13:32:28.890Z,24.04
2019-05-30T13:38:03.136Z,24.10
2019-05-30T13:40:37.405Z,24.16
2019-05-30T13:43:08.052Z,23.99
2019-05-30T13:45:58.114Z,24.62
2019-05-30T13:48:27.890Z,24.71
2019-05-30T13:51:14.772Z,24.99
2019-05-30T13:53:41.511Z,24.97
2019-05-30T13:56:11.196Z,24.74
2019-05-30T13:58:40.894Z,24.64
2019-05-30T14:01:13.833Z,24.38
2019-05-30T14:03:43.040Z,24.35
2019-05-30T14:12:14.299Z,24.56
2019-05-30T14:17:59.000Z,25.50
2019-05-30T14:20:30.217Z,25.21
2019-05-30T14:23:01.499Z,25.34
2019-05-30T14:25:31.261Z,25.07
2019-05-30T14:28:01.485Z,25.15
2019-05-30T14:30:34.053Z,25.34
2019-05-30T14:33:04.107Z,25.39
2019-05-30T14:35:33.937Z,25.47
2019-05-30T14:38:04.697Z,24.85
2019-05-30T14:40:34.247Z,24.67
2019-05-30T14:43:05.154Z,24.91
2019-05-30T14:45:35.007Z,24.89
2019-05-30T14:48:06.324Z,24.85
2019-05-30T14:50:36.068Z,25.08
2019-05-30T14:53:06.732Z,24.81
2019-05-30T14:55:36.772Z,24.65
2019-05-30T14:58:07.152Z,24.31
2019-05-30T15:00:37.012Z,24.31
2019-05-30T15:03:09.253Z,24.24
2019-05-30T15:05:37.960Z,24.24
2019-05-30T15:08:08.415Z,23.65
2019-05-30T15:10:38.123Z,23.37
2019-05-30T15:13:07.604Z,23.41
2019-05-30T15:15:37.175Z,23.49
2019-05-30T15:18:07.413Z,23.61
2019-05-30T15:20:37.022Z,23.69
2019-05-30T15:23:07.552Z,23.42
2019-05-30T15:25:37.275Z,23.19
2019-05-30T15:28:07.959Z,23.34
2019-05-30T15:30:37.852Z,23.10
2019-05-30T15:33:08.288Z,22.75
2019-05-30T15:35:37.842Z,22.92
2019-05-30T15:38:08.721Z,22.73
2019-05-30T15:40:38.434Z,22.75
2019-05-30T15:43:09.250Z,22.56
2019-05-30T15:45:39.284Z,22.73
2019-05-30T15:48:10.219Z,22.97
2019-05-30T15:50:40.221Z,23.01
2019-05-30T15:53:10.963Z,22.99
2019-05-30T15:55:42.810Z,23.12
2019-05-30T15:58:13.507Z,23.20
2019-05-30T16:00:43.458Z,23.13
2019-05-30T16:03:16.477Z,23.30
2019-05-30T16:05:53.778Z,23.19
2019-05-30T16:08:23.586Z,23.13
2019-05-30T16:10:53.663Z,22.97
2019-05-30T16:13:23.321Z,22.73
2019-05-30T16:16:39.011Z,22.77
2019-05-30T16:18:29.483Z,22.33
2019-05-30T16:20:59.038Z,22.57
2019-05-30T16:23:28.464Z,22.42
2019-05-30T16:25:58.238Z,22.42
2019-05-30T16:28:27.730Z,22.45
2019-05-30T16:30:57.375Z,22.42
2019-05-30T16:33:27.051Z,22.53
2019-05-30T16:35:56.507Z,22.50
2019-05-30T16:38:29.609Z,22.49
2019-05-30T16:41:00.112Z,22.31
2019-05-30T16:43:29.912Z,22.26
2019-05-30T16:45:59.420Z,22.25
2019-05-30T16:48:29.647Z,22.21
2019-05-30T16:50:59.170Z,22.08
2019-05-30T16:53:28.736Z,21.86
2019-05-30T16:56:00.099Z,21.79
2019-05-30T16:58:29.930Z,21.63
2019-05-30T17:01:01.065Z,21.48
2019-05-30T17:03:31.804Z,21.47
2019-05-30T17:06:01.381Z,21.39
2019-05-30T17:08:35.748Z,21.16
2019-05-30T17:11:03.854Z,21.07
2019-05-30T17:13:33.527Z,20.90
2019-05-30T17:16:04.751Z,20.92
2019-05-30T17:18:36.997Z,20.88
2019-05-30T17:21:08.039Z,20.68
2019-05-30T17:23:37.615Z,20.69
2019-05-30T17:26:07.276Z,20.54
2019-05-30T17:28:36.848Z,20.40
2019-05-30T17:31:06.486Z,20.48
2019-05-30T17:33:36.141Z,20.43
2019-05-30T17:36:06.179Z,20.10
2019-05-30T17:38:38.868Z,20.08
2019-05-30T17:41:12.627Z,19.95
2019-05-30T17:43:42.334Z,20.10
2019-05-30T17:46:12.974Z,19.98
2019-05-30T17:48:44.270Z,19.64
2019-05-30T17:51:15.415Z,19.56
2019-05-30T17:53:45.100Z,19.54
2019-05-30T17:56:16.097Z,19.39
2019-05-30T17:58:50.636Z,19.29
2019-05-30T18:01:24.237Z,19.14
2019-05-30T18:03:53.906Z,19.09
2019-05-30T18:06:26.469Z,18.96
2019-05-30T18:08:56.227Z,18.89
2019-05-30T18:11:29.032Z,18.64
2019-05-30T18:14:00.566Z,18.77
2019-05-30T18:16:34.081Z,18.90
2019-05-30T18:19:08.478Z,18.82
2019-05-30T18:21:37.864Z,18.52
2019-05-30T18:24:07.727Z,18.51
2019-05-30T18:26:39.074Z,18.29
2019-05-30T18:29:10.297Z,18.10
2019-05-30T18:31:46.186Z,18.08
2019-05-30T18:34:16.477Z,17.79
2019-05-30T18:36:49.649Z,17.74
2019-05-30T18:39:24.476Z,17.75
2019-05-30T18:42:00.494Z,17.66
2019-05-30T18:44:32.817Z,17.59
2019-05-30T18:47:13.897Z,17.22
2019-05-30T18:49:43.548Z,17.36
2019-05-30T18:52:13.173Z,17.08
2019-05-30T18:54:42.878Z,16.96
2019-05-30T18:57:12.620Z,17.07
2019-05-30T18:59:42.300Z,17.13
2019-05-30T19:02:12.016Z,17.03
2019-05-30T19:04:42.367Z,16.79
2019-05-30T19:07:14.007Z,16.85
2019-05-30T19:09:43.421Z,16.91
2019-05-30T19:12:13.076Z,16.89
2019-05-30T19:14:42.656Z,16.82
2019-05-30T19:17:12.302Z,16.84
2019-05-30T19:19:41.945Z,16.90
2019-05-30T19:22:11.604Z,16.82
2019-05-30T19:24:41.301Z,16.92
2019-05-30T19:27:17.111Z,17.00
2019-05-30T19:29:46.740Z,16.88
2019-05-30T19:32:19.567Z,16.87
2019-05-30T19:34:53.826Z,16.94
2019-05-30T19:37:25.210Z,16.88
2019-05-30T19:39:54.951Z,16.87
2019-05-30T19:57:50.140Z,16.42
2019-05-30T20:00:55.571Z,16.46
2019-05-30T20:03:10.168Z,16.35
2019-05-30T20:05:41.120Z,16.20
2019-05-30T20:08:14.289Z,16.18
2019-05-30T20:13:41.306Z,15.99
2019-05-30T20:16:13.711Z,15.96
2019-05-30T20:18:47.655Z,16.10
2019-05-30T20:21:25.127Z,16.04
2019-05-30T20:23:59.416Z,15.91
2019-05-30T20:26:48.507Z,15.89
2019-05-30T20:29:25.169Z,15.78
2019-05-30T20:31:56.291Z,15.51
2019-05-30T20:37:24.348Z,15.82
2019-05-30T20:42:59.186Z,15.35
2019-05-30T20:45:31.760Z,15.51
2019-05-30T20:48:13.107Z,15.39
2019-05-30T20:56:32.673Z,15.58
2019-05-30T20:59:02.388Z,15.45
2019-05-30T21:01:36.042Z,15.45
2019-05-30T21:04:06.481Z,15.69
2019-05-30T21:06:38.721Z,15.71
2019-05-30T21:09:27.355Z,15.68
2019-05-30T21:11:44.338Z,15.71
2019-05-30T21:14:16.248Z,15.83
2019-05-30T21:16:49.357Z,15.80
2019-05-30T21:19:19.007Z,15.80
2019-05-30T21:21:48.644Z,16.03
2019-05-30T21:24:18.228Z,15.99
2019-05-30T21:26:47.924Z,16.00
2019-05-30T21:29:17.553Z,16.03
2019-05-30T21:31:47.571Z,16.12
2019-05-30T21:34:18.534Z,16.29
2019-05-30T21:36:49.418Z,16.35
2019-05-30T21:39:19.045Z,16.30
2019-05-30T21:41:48.618Z,16.41
2019-05-30T21:44:18.575Z,16.32
2019-05-30T21:46:48.968Z,16.38
2019-05-30T21:49:19.208Z,16.40
2019-05-30T21:51:49.687Z,16.40
2019-05-30T21:54:19.643Z,16.59
2019-05-30T21:56:50.296Z,16.57
2019-05-30T21:59:20.219Z,16.54
2019-05-30T22:01:56.917Z,16.57
2019-05-30T22:04:21.334Z,16.62
2019-05-30T22:06:51.593Z,16.53
2019-05-30T22:09:21.289Z,16.69
2019-05-30T22:11:53.046Z,16.66
2019-05-30T22:14:22.696Z,16.69
2019-05-30T22:16:52.365Z,16.63
2019-05-30T22:19:22.111Z,16.69
2019-05-30T22:21:52.446Z,16.72
2019-05-30T22:24:22.467Z,16.76
2019-05-30T22:26:53.603Z,16.67
2019-05-30T22:29:25.470Z,16.79
2019-05-30T22:31:54.909Z,16.62
2019-05-30T22:34:25.459Z,16.71
2019-05-30T22:36:55.090Z,16.62
2019-05-30T22:39:25.082Z,16.64
2019-05-30T22:41:54.756Z,16.71
2019-05-30T22:44:24.182Z,16.68
2019-05-30T22:46:53.788Z,16.77
2019-05-30T22:49:23.402Z,16.55
2019-05-30T22:51:53.232Z,16.59
2019-05-30T22:54:22.853Z,16.57
2019-05-30T22:56:53.513Z,16.54
2019-05-30T22:59:23.548Z,16.54
2019-05-30T23:01:53.694Z,16.48
2019-05-30T23:04:23.352Z,16.44
2019-05-30T23:06:54.432Z,16.50
2019-05-30T23:09:24.180Z,16.58
2019-05-30T23:11:53.903Z,16.66
2019-05-30T23:14:23.389Z,16.39
2019-05-30T23:16:54.378Z,16.32
2019-05-30T23:19:24.311Z,16.40
2019-05-30T23:21:57.289Z,16.52
2019-05-30T23:24:26.847Z,16.44
2019-05-30T23:26:56.381Z,16.42
2019-05-30T23:29:25.929Z,16.34
2019-05-30T23:31:56.199Z,16.31
2019-05-30T23:34:28.041Z,16.35
2019-05-30T23:36:58.662Z,16.60
2019-05-30T23:39:28.512Z,16.32
2019-05-30T23:41:59.291Z,16.31
2019-05-30T23:44:28.985Z,16.38
2019-05-30T23:46:59.653Z,16.37
2019-05-30T23:49:29.332Z,16.44
2019-05-30T23:52:00.225Z,16.29
2019-05-30T23:54:30.266Z,16.21
2019-05-30T23:57:00.812Z,16.07
2019-05-30T23:59:31.374Z,16.00
